createdAt,value
2022-09-23T00:01:16.796Z,11.32
2022-09-23T00:03:47.391Z,11.31
2022-09-23T00:06:17.478Z,11.28
2022-09-23T00:08:44.788Z,11.29
2022-09-23T00:11:17.698Z,11.30
2022-09-23T00:13:46.724Z,11.31
2022-09-23T00:16:16.982Z,11.27
2022-09-23T00:18:44.261Z,11.22
2022-09-23T00:21:13.559Z,11.20
2022-09-23T00:23:42.890Z,11.11
2022-09-23T00:26:12.782Z,11.09
2022-09-23T00:28:39.573Z,11.07
2022-09-23T00:31:08.656Z,11.05
2022-09-23T00:33:35.322Z,10.99
2022-09-23T00:36:05.700Z,10.93
2022-09-23T00:38:33.895Z,10.91
2022-09-23T00:41:00.945Z,10.86
2022-09-23T00:43:48.935Z,10.85
2022-09-23T00:46:37.437Z,10.78
2022-09-23T00:49:10.903Z,10.72
2022-09-23T00:51:41.372Z,10.72
2022-09-23T00:54:09.189Z,10.68
2022-09-23T00:56:38.677Z,10.66
2022-09-23T00:59:09.655Z,10.66
2022-09-23T01:01:38.205Z,10.60
2022-09-23T01:04:07.196Z,10.59
2022-09-23T01:06:34.355Z,10.59
2022-09-23T01:09:02.319Z,10.66
2022-09-23T01:11:40.604Z,10.62
2022-09-23T01:14:20.247Z,10.55
2022-09-23T01:16:59.144Z,10.39
2022-09-23T01:19:36.337Z,10.34
2022-09-23T01:22:09.167Z,10.31
2022-09-23T01:24:54.843Z,10.33
2022-09-23T01:27:34.298Z,10.32
2022-09-23T01:30:16.664Z,10.33
2022-09-23T01:32:43.440Z,10.37
2022-09-23T01:35:22.592Z,10.38
2022-09-23T01:38:05.128Z,10.30
2022-09-23T01:40:59.791Z,10.27
2022-09-23T01:43:39.000Z,10.28
2022-09-23T01:46:16.495Z,10.33
2022-09-23T01:48:53.801Z,10.36
2022-09-23T01:51:40.575Z,10.37
2022-09-23T01:54:31.006Z,10.34
2022-09-23T01:57:09.718Z,10.37
2022-09-23T01:59:41.511Z,10.45
2022-09-23T02:02:11.583Z,10.47
2022-09-23T02:05:04.172Z,10.44
2022-09-23T02:07:42.217Z,10.37
2022-09-23T02:10:15.350Z,10.34
2022-09-23T02:12:46.903Z,10.36
2022-09-23T02:15:24.862Z,10.34
2022-09-23T02:17:56.186Z,10.30
2022-09-23T02:20:29.941Z,10.23
2022-09-23T02:23:03.709Z,10.14
2022-09-23T02:25:40.335Z,10.11
2022-09-23T02:28:17.003Z,10.18
2022-09-23T02:30:52.016Z,10.17
2022-09-23T02:33:28.850Z,10.08
2022-09-23T02:36:06.317Z,9.99
2022-09-23T02:38:50.778Z,9.86
2022-09-23T02:41:37.188Z,9.82
2022-09-23T02:44:09.031Z,9.79
2022-09-23T02:46:37.014Z,9.71
2022-09-23T02:49:21.920Z,9.66
2022-09-23T02:51:49.169Z,9.58
2022-09-23T02:54:22.804Z,9.61
2022-09-23T02:56:49.807Z,9.73
2022-09-23T02:59:20.808Z,9.74
2022-09-23T03:02:09.389Z,9.90
2022-09-23T03:04:58.554Z,9.90
2022-09-23T03:07:44.507Z,9.98
2022-09-23T03:10:22.945Z,10.05
2022-09-23T03:13:02.022Z,10.09
2022-09-23T03:15:42.710Z,10.10
2022-09-23T03:18:31.672Z,10.14
2022-09-23T03:21:09.934Z,10.13
2022-09-23T03:23:40.015Z,10.16
2022-09-23T03:26:14.720Z,10.19
2022-09-23T03:28:44.868Z,10.22
2022-09-23T03:31:13.950Z,10.23
2022-09-23T03:33:45.399Z,10.25
2022-09-23T03:36:33.596Z,10.30
2022-09-23T03:39:08.966Z,10.30
2022-09-23T03:41:42.073Z,10.37
2022-09-23T03:44:10.974Z,10.49
2022-09-23T03:46:37.933Z,10.54
2022-09-23T03:49:16.436Z,10.49
2022-09-23T03:51:44.753Z,10.49
2022-09-23T03:54:12.317Z,10.51
2022-09-23T03:56:39.324Z,10.47
2022-09-23T03:59:06.163Z,10.45
2022-09-23T04:01:33.051Z,10.56
2022-09-23T04:04:00.166Z,10.57
2022-09-23T04:06:27.114Z,10.56
2022-09-23T04:08:53.902Z,10.60
2022-09-23T04:11:20.458Z,10.64
2022-09-23T04:13:47.213Z,10.59
2022-09-23T04:16:14.159Z,10.67
2022-09-23T04:18:40.869Z,10.62
2022-09-23T04:21:07.487Z,10.59
2022-09-23T04:23:34.091Z,10.61
2022-09-23T04:26:00.754Z,10.65
2022-09-23T04:28:27.656Z,10.61
2022-09-23T04:30:56.626Z,10.64
2022-09-23T04:33:24.585Z,10.68
2022-09-23T04:35:52.412Z,10.66
2022-09-23T04:38:19.560Z,10.72
2022-09-23T04:40:46.262Z,10.70
2022-09-23T04:43:15.784Z,10.69
2022-09-23T04:45:43.554Z,10.72
2022-09-23T04:48:11.329Z,10.72
2022-09-23T04:50:38.367Z,10.74
2022-09-23T04:53:05.290Z,10.77
2022-09-23T04:55:32.216Z,10.72
2022-09-23T04:57:58.992Z,10.71
2022-09-23T05:00:28.611Z,10.69
2022-09-23T05:02:55.523Z,10.70
2022-09-23T05:05:23.665Z,10.74
2022-09-23T05:07:51.341Z,10.76
2022-09-23T05:10:18.331Z,10.82
2022-09-23T05:12:45.630Z,10.82
2022-09-23T05:15:16.094Z,10.78
2022-09-23T05:17:43.289Z,10.80
2022-09-23T05:20:13.704Z,10.84
2022-09-23T05:22:40.436Z,10.83
2022-09-23T05:25:07.465Z,10.81
2022-09-23T05:27:34.423Z,10.88
2022-09-23T05:30:01.930Z,10.89
2022-09-23T05:32:28.525Z,10.94
2022-09-23T05:34:55.753Z,10.93
2022-09-23T05:37:23.049Z,10.94
2022-09-23T05:39:53.136Z,10.95
2022-09-23T05:42:20.945Z,11.02
2022-09-23T05:44:47.912Z,11.03
2022-09-23T05:47:14.562Z,11.06
2022-09-23T05:49:58.528Z,11.09
2022-09-23T05:52:26.649Z,11.11
2022-09-23T05:54:53.848Z,11.19
2022-09-23T05:57:21.412Z,11.23
2022-09-23T05:59:47.970Z,11.20
2022-09-23T06:02:15.225Z,11.29
2022-09-23T06:04:42.706Z,11.32
2022-09-23T06:07:09.879Z,11.32
2022-09-23T06:09:37.018Z,11.36
2022-09-23T06:12:06.272Z,11.38
2022-09-23T06:14:32.809Z,11.38
2022-09-23T06:16:59.507Z,11.40
2022-09-23T06:19:26.169Z,11.43
2022-09-23T06:21:53.048Z,11.49
2022-09-23T06:24:23.758Z,11.50
2022-09-23T06:26:52.617Z,11.51
2022-09-23T06:29:19.354Z,11.50
2022-09-23T06:31:45.945Z,11.54
2022-09-23T06:34:14.446Z,11.61
2022-09-23T06:36:45.416Z,11.62
2022-09-23T06:39:16.201Z,11.73
2022-09-23T06:41:45.035Z,11.73
2022-09-23T06:44:15.726Z,11.72
2022-09-23T06:46:43.136Z,11.88
2022-09-23T06:49:11.072Z,11.82
2022-09-23T06:51:37.645Z,11.99
2022-09-23T06:54:04.648Z,12.06
2022-09-23T06:56:36.148Z,12.13
2022-09-23T06:59:06.352Z,12.18
2022-09-23T07:01:33.410Z,12.19
2022-09-23T07:04:01.743Z,12.37
2022-09-23T07:06:28.405Z,12.59
2022-09-23T07:08:55.052Z,12.64
2022-09-23T07:11:22.563Z,12.65
2022-09-23T07:13:49.786Z,12.72
2022-09-23T07:16:16.473Z,12.93
2022-09-23T07:18:43.229Z,12.99
2022-09-23T07:21:15.088Z,13.14
2022-09-23T07:23:42.914Z,13.23
2022-09-23T07:26:10.242Z,13.25
2022-09-23T07:28:38.327Z,13.36
2022-09-23T07:31:10.543Z,13.41
2022-09-23T07:33:39.803Z,13.61
2022-09-23T07:36:13.314Z,13.61
2022-09-23T07:38:44.423Z,13.73
2022-09-23T07:41:15.212Z,13.81
2022-09-23T07:43:41.802Z,13.98
2022-09-23T07:46:16.099Z,14.04
2022-09-23T07:48:44.358Z,14.16
2022-09-23T07:51:16.460Z,14.25
2022-09-23T07:53:43.275Z,14.41
2022-09-23T07:56:10.503Z,14.54
2022-09-23T07:58:37.018Z,14.62
2022-09-23T08:01:05.717Z,14.78
2022-09-23T08:03:32.567Z,14.77
2022-09-23T08:06:10.003Z,14.89
2022-09-23T08:08:40.725Z,14.87
2022-09-23T08:11:10.201Z,15.03
2022-09-23T08:13:37.270Z,15.14
2022-09-23T08:16:04.481Z,15.32
2022-09-23T08:18:31.300Z,15.52
2022-09-23T08:20:59.346Z,15.66
2022-09-23T08:23:26.139Z,15.85
2022-09-23T08:26:03.826Z,15.89
2022-09-23T08:28:33.771Z,16.12
2022-09-23T08:31:00.998Z,16.25
2022-09-23T08:33:27.957Z,16.35
2022-09-23T08:36:00.551Z,16.49
2022-09-23T08:38:27.658Z,16.76
2022-09-23T08:41:05.682Z,17.06
2022-09-23T08:43:35.963Z,17.24
2022-09-23T08:46:05.785Z,17.21
2022-09-23T08:48:38.593Z,17.22
2022-09-23T08:51:08.477Z,17.47
2022-09-23T08:53:38.314Z,17.65
2022-09-23T08:56:20.062Z,17.84
2022-09-23T08:58:54.433Z,18.06
2022-09-23T09:01:28.469Z,18.29
2022-09-23T09:04:01.505Z,18.40
2022-09-23T09:06:52.258Z,18.69
2022-09-23T09:09:37.083Z,18.73
2022-09-23T09:12:12.415Z,18.76
2022-09-23T09:15:02.571Z,18.84
2022-09-23T09:17:33.029Z,19.02
2022-09-23T09:20:05.919Z,19.25
2022-09-23T09:22:38.900Z,19.02
2022-09-23T09:25:18.638Z,19.17
2022-09-23T09:27:46.325Z,19.13
2022-09-23T09:30:17.178Z,19.20
2022-09-23T09:32:52.302Z,19.24
2022-09-23T09:35:23.231Z,19.50
2022-09-23T09:37:49.787Z,19.59
2022-09-23T09:40:17.558Z,19.58
2022-09-23T09:42:49.628Z,19.42
2022-09-23T09:45:57.808Z,19.35
2022-09-23T09:48:45.479Z,19.35
2022-09-23T09:51:21.794Z,19.22
2022-09-23T09:53:51.907Z,19.28
2022-09-23T09:56:34.377Z,19.25
2022-09-23T09:59:08.218Z,19.43
2022-09-23T10:01:35.650Z,19.61
2022-09-23T10:04:20.583Z,19.81
2022-09-23T10:07:14.309Z,20.10
2022-09-23T10:09:49.298Z,20.11
2022-09-23T10:12:19.245Z,19.91
2022-09-23T10:14:51.302Z,19.92
2022-09-23T10:17:21.503Z,20.01
2022-09-23T10:19:58.818Z,20.18
2022-09-23T10:22:33.485Z,20.36
2022-09-23T10:25:07.407Z,20.58
2022-09-23T10:27:36.702Z,20.49
2022-09-23T10:30:30.061Z,20.46
2022-09-23T10:32:57.213Z,20.80
2022-09-23T10:35:26.631Z,20.76
2022-09-23T10:37:53.857Z,21.10
2022-09-23T10:40:48.813Z,21.10
2022-09-23T10:44:00.196Z,21.25
2022-09-23T10:46:39.018Z,20.97
2022-09-23T10:49:31.063Z,21.21
2022-09-23T10:52:22.923Z,21.25
2022-09-23T10:55:07.150Z,21.44
2022-09-23T10:57:46.443Z,21.46
2022-09-23T11:00:32.092Z,21.65
2022-09-23T11:03:34.678Z,21.85
2022-09-23T11:06:04.207Z,21.79
2022-09-23T11:09:08.540Z,21.77
2022-09-23T11:11:44.250Z,21.42
2022-09-23T11:14:38.792Z,21.39
2022-09-23T11:17:45.915Z,21.58
2022-09-23T11:20:23.109Z,21.65
2022-09-23T11:23:14.317Z,21.42
2022-09-23T11:26:25.954Z,21.57
2022-09-23T11:29:04.233Z,21.49
2022-09-23T11:31:40.582Z,21.43
2022-09-23T11:34:28.700Z,21.59
2022-09-23T11:37:07.242Z,21.76
2022-09-23T11:39:44.038Z,21.64
2022-09-23T11:42:19.663Z,21.74
2022-09-23T11:44:54.040Z,22.12
2022-09-23T11:47:39.820Z,22.10
2022-09-23T11:50:20.039Z,22.06
2022-09-23T11:52:59.080Z,22.15
2022-09-23T11:55:32.836Z,22.12
2022-09-23T11:58:12.214Z,21.93
2022-09-23T12:00:59.337Z,22.07
2022-09-23T12:03:48.196Z,22.01
2022-09-23T12:06:20.384Z,22.04
2022-09-23T12:08:53.697Z,22.00
2022-09-23T12:11:20.271Z,22.03
2022-09-23T12:14:07.453Z,21.73
2022-09-23T12:16:40.368Z,21.62
2022-09-23T12:19:34.831Z,21.58
2022-09-23T12:22:24.798Z,21.39
2022-09-23T12:25:04.528Z,21.55
2022-09-23T12:27:45.956Z,21.75
2022-09-23T12:30:17.798Z,21.99
2022-09-23T12:32:44.973Z,22.20
2022-09-23T12:35:25.162Z,22.37
2022-09-23T12:37:53.247Z,22.36
2022-09-23T12:40:32.842Z,22.36
2022-09-23T12:43:01.200Z,22.27
2022-09-23T12:45:32.607Z,22.22
2022-09-23T12:48:03.117Z,22.19
2022-09-23T12:50:50.818Z,22.14
2022-09-23T12:53:53.458Z,22.05
2022-09-23T12:56:26.465Z,22.17
2022-09-23T12:59:28.587Z,21.80
2022-09-23T13:01:56.090Z,21.46
2022-09-23T13:04:49.740Z,21.16
2022-09-23T13:07:21.936Z,21.13
2022-09-23T13:09:52.334Z,21.24
2022-09-23T13:12:28.193Z,21.14
2022-09-23T13:15:00.589Z,20.96
2022-09-23T13:17:33.101Z,20.91
2022-09-23T13:20:03.698Z,20.83
2022-09-23T13:23:04.034Z,20.95
2022-09-23T13:25:33.654Z,20.95
2022-09-23T13:28:12.507Z,21.03
2022-09-23T13:30:49.162Z,21.02
2022-09-23T13:33:24.173Z,21.15
2022-09-23T13:35:52.529Z,21.28
2022-09-23T13:38:19.005Z,21.34
2022-09-23T13:40:46.995Z,21.33
2022-09-23T13:43:40.346Z,21.48
2022-09-23T13:46:16.193Z,21.40
2022-09-23T13:48:45.307Z,21.48
2022-09-23T13:51:21.992Z,21.10
2022-09-23T13:53:58.186Z,21.23
2022-09-23T13:56:28.547Z,21.22
2022-09-23T13:59:23.429Z,21.08
2022-09-23T14:01:50.040Z,20.89
2022-09-23T14:04:26.076Z,20.86
2022-09-23T14:06:55.745Z,21.10
2022-09-23T14:09:27.463Z,21.04
2022-09-23T14:11:56.603Z,21.09
2022-09-23T14:14:23.801Z,21.07
2022-09-23T14:16:51.756Z,21.03
2022-09-23T14:19:21.408Z,21.01
2022-09-23T14:21:53.377Z,20.68
2022-09-23T14:24:29.610Z,20.49
2022-09-23T14:27:12.657Z,20.52
2022-09-23T14:29:42.076Z,20.59
2022-09-23T14:32:14.400Z,20.52
2022-09-23T14:34:42.810Z,20.54
2022-09-23T14:37:37.713Z,20.52
2022-09-23T14:40:11.240Z,20.44
2022-09-23T14:42:41.212Z,20.49
2022-09-23T14:45:13.946Z,20.54
2022-09-23T14:47:45.803Z,20.60
2022-09-23T14:50:36.823Z,20.54
2022-09-23T14:53:04.882Z,20.36
2022-09-23T14:55:31.805Z,20.31
2022-09-23T14:58:04.735Z,20.23
2022-09-23T15:00:31.866Z,20.18
2022-09-23T15:03:13.032Z,20.12
2022-09-23T15:05:46.305Z,19.97
2022-09-23T15:08:19.196Z,19.96
2022-09-23T15:10:46.249Z,19.92
2022-09-23T15:13:17.684Z,19.88
2022-09-23T15:15:44.631Z,19.74
2022-09-23T15:18:18.742Z,19.73
2022-09-23T15:20:54.783Z,19.75
2022-09-23T15:23:49.169Z,19.81
2022-09-23T15:26:19.986Z,19.83
2022-09-23T15:28:48.319Z,19.94
2022-09-23T15:31:16.797Z,20.02
2022-09-23T15:33:47.869Z,20.05
2022-09-23T15:36:19.052Z,20.04
2022-09-23T15:38:46.686Z,20.00
2022-09-23T15:41:14.408Z,19.95
2022-09-23T15:43:41.828Z,19.85
2022-09-23T15:46:22.085Z,19.79
2022-09-23T15:48:59.024Z,19.70
2022-09-23T15:51:27.591Z,19.51
2022-09-23T15:53:55.462Z,19.38
2022-09-23T15:56:22.959Z,19.37
2022-09-23T15:58:50.426Z,19.42
2022-09-23T16:01:31.677Z,19.33
2022-09-23T16:04:01.244Z,19.29
2022-09-23T16:06:28.114Z,19.18
2022-09-23T16:08:55.324Z,19.19
2022-09-23T16:11:32.767Z,19.14
2022-09-23T16:14:00.842Z,19.02
2022-09-23T16:16:28.043Z,18.95
2022-09-23T16:18:55.321Z,18.89
2022-09-23T16:21:28.161Z,18.80
2022-09-23T16:23:57.267Z,18.85
2022-09-23T16:26:30.352Z,18.80
2022-09-23T16:28:58.406Z,18.74
2022-09-23T16:31:26.842Z,18.72
2022-09-23T16:33:53.696Z,18.68
2022-09-23T16:36:31.026Z,18.70
2022-09-23T16:39:02.872Z,18.67
2022-09-23T16:41:34.455Z,18.61
2022-09-23T16:44:04.516Z,18.58
2022-09-23T16:46:31.702Z,18.60
2022-09-23T16:49:00.389Z,18.52
2022-09-23T16:51:30.606Z,18.51
2022-09-23T16:53:59.503Z,18.44
2022-09-23T16:56:29.097Z,18.44
2022-09-23T16:58:56.875Z,18.38
2022-09-23T17:01:44.784Z,18.40
2022-09-23T17:04:12.760Z,18.33
2022-09-23T17:06:50.146Z,18.29
2022-09-23T17:09:20.219Z,18.22
2022-09-23T17:11:53.089Z,18.21
2022-09-23T17:14:20.444Z,18.10
2022-09-23T17:16:47.434Z,18.16
2022-09-23T17:19:14.117Z,18.10
2022-09-23T17:21:40.917Z,18.07
2022-09-23T17:24:07.578Z,18.07
2022-09-23T17:26:34.494Z,18.08
2022-09-23T17:29:02.283Z,18.09
2022-09-23T17:31:30.563Z,18.01
2022-09-23T17:33:57.592Z,18.01
2022-09-23T17:36:24.559Z,17.98
2022-09-23T17:38:54.205Z,17.81
2022-09-23T17:41:21.862Z,17.80
2022-09-23T17:43:55.469Z,17.80
2022-09-23T17:46:23.298Z,17.64
2022-09-23T17:48:53.126Z,17.68
2022-09-23T17:51:19.939Z,17.66
2022-09-23T17:53:48.305Z,17.57
2022-09-23T17:56:15.264Z,17.54
2022-09-23T17:58:43.529Z,17.43
2022-09-23T18:01:12.555Z,17.26
2022-09-23T18:03:43.389Z,17.21
2022-09-23T18:06:12.988Z,17.22
2022-09-23T18:08:42.047Z,17.08
2022-09-23T18:11:15.271Z,16.97
2022-09-23T18:13:42.438Z,16.86
2022-09-23T18:16:09.421Z,16.90
2022-09-23T18:18:36.472Z,16.80
2022-09-23T18:21:04.794Z,16.81
2022-09-23T18:23:32.609Z,16.77
2022-09-23T18:25:59.679Z,16.64
2022-09-23T18:28:32.666Z,16.55
2022-09-23T18:31:01.633Z,16.49
2022-09-23T18:33:31.125Z,16.44
2022-09-23T18:36:03.467Z,16.44
2022-09-23T18:38:33.704Z,16.35
2022-09-23T18:41:01.469Z,16.32
2022-09-23T18:43:37.555Z,16.32
2022-09-23T18:46:14.603Z,16.20
2022-09-23T18:49:01.973Z,16.33
2022-09-23T18:51:30.335Z,16.36
2022-09-23T18:53:59.405Z,16.32
2022-09-23T18:56:29.650Z,16.36
2022-09-23T18:58:57.193Z,16.35
2022-09-23T19:01:24.344Z,16.33
2022-09-23T19:03:56.195Z,16.23
2022-09-23T19:06:24.101Z,16.27
2022-09-23T19:08:53.096Z,16.28
2022-09-23T19:11:21.165Z,16.25
2022-09-23T19:13:56.421Z,16.22
2022-09-23T19:16:26.303Z,16.20
2022-09-23T19:18:53.825Z,16.24
2022-09-23T19:21:22.579Z,16.22
2022-09-23T19:24:08.184Z,16.22
2022-09-23T19:26:39.076Z,16.27
2022-09-23T19:29:08.313Z,16.19
2022-09-23T19:31:43.409Z,16.08
2022-09-23T19:34:16.225Z,16.14
2022-09-23T19:36:45.567Z,16.17
2022-09-23T19:39:22.696Z,16.21
2022-09-23T19:41:50.460Z,16.13
2022-09-23T19:44:17.550Z,16.11
2022-09-23T19:46:51.686Z,16.13
2022-09-23T19:49:21.675Z,16.12
2022-09-23T19:51:48.521Z,16.07
2022-09-23T19:54:21.662Z,16.14
2022-09-23T19:56:49.671Z,16.19
2022-09-23T19:59:19.172Z,16.10
2022-09-23T20:01:48.072Z,16.07
2022-09-23T20:04:15.830Z,16.05
2022-09-23T20:06:43.181Z,16.04
2022-09-23T20:09:10.434Z,16.04
2022-09-23T20:11:37.751Z,16.06
2022-09-23T20:14:06.252Z,16.01
2022-09-23T20:16:35.770Z,15.99
2022-09-23T20:19:04.312Z,16.03
2022-09-23T20:21:31.645Z,16.00
2022-09-23T20:23:58.604Z,15.95
2022-09-23T20:26:43.992Z,15.95
2022-09-23T20:29:11.467Z,15.86
2022-09-23T20:31:40.249Z,15.90
2022-09-23T20:34:08.199Z,15.87
2022-09-23T20:36:36.240Z,15.83
2022-09-23T20:39:09.631Z,15.81
2022-09-23T20:41:38.995Z,15.80
2022-09-23T20:44:09.753Z,15.85
2022-09-23T20:46:36.809Z,15.89
2022-09-23T20:49:04.654Z,15.81
2022-09-23T20:51:33.406Z,15.83
2022-09-23T20:54:01.250Z,15.72
2022-09-23T20:56:29.040Z,15.77
2022-09-23T20:59:00.511Z,15.68
2022-09-23T21:01:27.824Z,15.66
2022-09-23T21:03:55.943Z,15.63
2022-09-23T21:06:26.156Z,15.68
2022-09-23T21:08:54.656Z,15.61
2022-09-23T21:11:22.033Z,15.65
2022-09-23T21:13:53.868Z,15.60
2022-09-23T21:16:25.280Z,15.63
2022-09-23T21:18:52.812Z,15.58
2022-09-23T21:21:21.961Z,15.49
2022-09-23T21:23:49.567Z,15.51
2022-09-23T21:26:26.541Z,15.55
2022-09-23T21:28:57.635Z,15.32
2022-09-23T21:31:33.836Z,15.48
2022-09-23T21:34:06.422Z,15.32
2022-09-23T21:36:38.247Z,15.45
2022-09-23T21:39:06.783Z,15.47
2022-09-23T21:41:34.068Z,15.45
2022-09-23T21:44:04.413Z,15.38
2022-09-23T21:46:33.799Z,15.31
2022-09-23T21:49:03.300Z,15.36
2022-09-23T21:51:41.120Z,15.27
2022-09-23T21:54:13.599Z,15.32
2022-09-23T21:56:40.416Z,15.35
2022-09-23T21:59:08.111Z,15.28
2022-09-23T22:01:38.048Z,15.30
2022-09-23T22:04:14.689Z,15.29
2022-09-23T22:06:41.743Z,15.21
2022-09-23T22:09:12.150Z,15.24
2022-09-23T22:11:58.365Z,15.22
2022-09-23T22:14:26.207Z,15.13
2022-09-23T22:16:57.878Z,15.13
2022-09-23T22:19:27.067Z,15.11
2022-09-23T22:21:55.956Z,15.11
2022-09-23T22:24:23.130Z,15.07
2022-09-23T22:26:49.894Z,15.04
2022-09-23T22:29:35.249Z,15.01
2022-09-23T22:32:22.698Z,15.10
2022-09-23T22:34:52.079Z,15.10
2022-09-23T22:37:25.480Z,15.01
2022-09-23T22:39:52.122Z,15.10
2022-09-23T22:42:21.464Z,14.97
2022-09-23T22:44:48.728Z,14.95
2022-09-23T22:47:20.527Z,14.95
2022-09-23T22:49:47.938Z,14.98
2022-09-23T22:52:16.170Z,14.89
2022-09-23T22:54:43.450Z,14.86
2022-09-23T22:57:10.318Z,14.81
2022-09-23T22:59:39.799Z,14.80
2022-09-23T23:02:08.194Z,14.86
2022-09-23T23:04:37.134Z,14.87
2022-09-23T23:07:06.021Z,14.91
2022-09-23T23:09:32.933Z,14.88
2022-09-23T23:12:00.065Z,14.84
2022-09-23T23:14:28.099Z,14.90
2022-09-23T23:16:55.182Z,14.82
2022-09-23T23:19:22.091Z,14.85
2022-09-23T23:21:50.477Z,14.83
2022-09-23T23:24:21.774Z,14.83
2022-09-23T23:26:49.560Z,14.80
2022-09-23T23:29:18.115Z,14.72
2022-09-23T23:31:45.545Z,14.78
2022-09-23T23:34:16.224Z,14.69
2022-09-23T23:36:43.752Z,14.74
2022-09-23T23:39:12.347Z,14.70
2022-09-23T23:41:42.508Z,14.73
2022-09-23T23:44:09.358Z,14.76
2022-09-23T23:46:37.424Z,14.79
2022-09-23T23:49:04.847Z,14.76
2022-09-23T23:51:32.171Z,14.67
2022-09-23T23:53:59.488Z,14.66
2022-09-23T23:56:27.583Z,14.71
2022-09-23T23:59:03.976Z,14.77
